Time;durP1;ratioP1;P1;durP2;ratioP2;P2;SDS_P1;SDS_P2;PMS_P1;PMS_P2;Temp;Humidity;BMP_temperature;BMP_pressure;BME280_temperature;BME280_humidity;BME280_pressure;Samples;Min_cycle;Max_cycle;Signal;HPM_P1;HPM_P2
2021/05/05 00:01:59;;;;;;;10.13;5.78;;;;;;;12.35;64.54;99017.29;1797249;79;35266;-72
2021/05/05 00:04:25;;;;;;;9.48;6.00;;;;;;;12.26;64.47;99012.52;1795696;79;25287;-72
2021/05/05 00:06:56;;;;;;;7.62;5.33;;;;;;;12.21;64.49;99007.89;1794827;79;25811;-72
2021/05/05 00:09:23;;;;;;;11.53;5.25;;;;;;;12.16;64.61;98998.03;1792576;79;25878;-72
2021/05/05 00:11:50;;;;;;;7.22;4.47;;;;;;;12.16;64.56;98997.23;1789637;79;25833;-72
2021/05/05 00:14:19;;;;;;;8.35;4.30;;;;;;;12.18;64.77;98992.60;1791097;78;26048;-73
2021/05/05 00:16:45;;;;;;;7.33;3.83;;;;;;;12.20;64.79;98995.31;1792706;79;25364;-72
2021/05/05 00:19:13;;;;;;;7.42;3.55;;;;;;;12.25;64.90;98995.17;1794072;79;25681;-72
2021/05/05 00:21:40;;;;;;;6.05;3.27;;;;;;;12.26;65.06;98992.36;1790208;78;25603;-72
2021/05/05 00:24:07;;;;;;;4.55;3.00;;;;;;;12.30;64.91;98988.29;1795074;79;25707;-72
2021/05/05 00:26:33;;;;;;;5.95;3.25;;;;;;;12.35;65.09;98983.74;1795958;79;26007;-72
2021/05/05 00:28:59;;;;;;;4.65;2.95;;;;;;;12.38;65.10;98985.42;1794065;79;33025;-72
2021/05/05 00:31:26;;;;;;;5.67;2.90;;;;;;;12.43;65.16;98982.18;1794600;79;26367;-72
2021/05/05 00:33:52;;;;;;;5.53;3.02;;;;;;;12.46;65.23;98984.38;1795580;79;25458;-72
2021/05/05 00:36:18;;;;;;;5.47;2.60;;;;;;;12.50;65.19;98986.89;1788145;78;25355;-72
2021/05/05 00:38:46;;;;;;;5.90;3.62;;;;;;;12.50;64.93;98985.58;1790325;79;34916;-72
2021/05/05 00:41:12;;;;;;;4.95;3.22;;;;;;;12.53;64.94;98980.42;1796201;79;25768;-71
2021/05/05 00:43:39;;;;;;;4.72;2.77;;;;;;;12.54;64.77;98988.56;1792953;79;26431;-71
2021/05/05 00:46:05;;;;;;;7.90;3.15;;;;;;;12.54;64.86;98982.81;1795170;79;25760;-71
2021/05/05 00:48:32;;;;;;;4.17;2.30;;;;;;;12.53;65.11;98983.84;1794938;79;25818;-71
2021/05/05 00:50:59;;;;;;;4.55;2.90;;;;;;;12.52;65.06;98988.80;1795222;79;25844;-71
2021/05/05 00:53:25;;;;;;;5.87;2.65;;;;;;;12.51;65.13;98986.38;1794200;78;26382;-71
2021/05/05 00:55:50;;;;;;;7.13;2.87;;;;;;;12.50;65.14;98988.20;1796113;79;26137;-71
2021/05/05 00:58:18;;;;;;;4.47;2.90;;;;;;;12.49;65.26;98983.95;1769606;79;31176;-71
2021/05/05 01:00:48;;;;;;;4.78;3.20;;;;;;;12.46;65.23;98985.69;1790830;79;25727;-72
2021/05/05 01:03:14;;;;;;;4.08;3.00;;;;;;;12.46;65.28;98986.20;1793142;79;26035;-72
2021/05/05 01:05:41;;;;;;;6.65;3.62;;;;;;;12.44;65.30;98988.53;1794760;79;32824;-72
2021/05/05 01:08:08;;;;;;;5.40;3.10;;;;;;;12.41;65.45;98992.06;1794080;79;25777;-72
2021/05/05 01:10:34;;;;;;;5.17;3.17;;;;;;;12.38;65.42;98997.22;1792903;79;25764;-72
2021/05/05 01:13:01;;;;;;;6.10;3.25;;;;;;;12.35;65.94;98987.16;1788508;79;25897;-72
2021/05/05 01:15:28;;;;;;;5.28;3.10;;;;;;;12.34;65.75;98991.31;1791836;79;25866;-72
2021/05/05 01:17:55;;;;;;;6.62;2.90;;;;;;;12.32;65.76;98988.89;1790470;79;26494;-72
2021/05/05 01:20:22;;;;;;;6.70;3.20;;;;;;;12.32;65.70;98994.13;1791842;78;26349;-72
2021/05/05 01:22:47;;;;;;;7.22;3.87;;;;;;;12.29;65.94;98994.55;1796751;79;25978;-72
2021/05/05 01:25:17;;;;;;;5.78;3.33;;;;;;;12.28;65.76;98994.78;1794092;78;25755;-72
2021/05/05 01:27:43;;;;;;;5.92;3.50;;;;;;;12.26;65.80;98996.29;1793150;79;25669;-71
2021/05/05 01:30:13;;;;;;;8.55;3.67;;;;;;;12.24;65.89;98993.06;1791188;79;32553;-71
2021/05/05 01:32:39;;;;;;;5.58;2.80;;;;;;;12.24;65.89;98988.34;1772280;79;32818;-71
2021/05/05 01:35:09;;;;;;;6.87;3.40;;;;;;;12.22;66.11;98991.16;1782422;79;25737;-71
2021/05/05 01:37:35;;;;;;;4.28;3.15;;;;;;;12.19;65.99;98992.41;1794552;79;25970;-71
2021/05/05 01:40:04;;;;;;;5.33;3.05;;;;;;;12.16;66.07;98984.94;1796652;79;25698;-71
2021/05/05 01:42:30;;;;;;;5.47;3.52;;;;;;;12.14;66.21;98979.61;1793078;79;25729;-71
2021/05/05 01:44:57;;;;;;;5.33;3.07;;;;;;;12.12;66.20;98981.66;1747149;79;26954;-71
2021/05/05 01:47:23;;;;;;;6.30;3.55;;;;;;;12.12;66.29;98981.14;1791834;79;26463;-72
2021/05/05 01:49:50;;;;;;;4.97;3.35;;;;;;;12.10;66.42;98981.85;1795303;78;25673;-72
2021/05/05 01:52:19;;;;;;;5.75;3.50;;;;;;;12.07;66.33;98991.44;1793125;79;25649;-72
2021/05/05 01:54:46;;;;;;;4.58;3.37;;;;;;;12.07;66.30;98984.09;1790754;78;25288;-72
2021/05/05 01:57:32;;;;;;;6.35;3.27;;;;;;;12.05;66.40;98976.44;1795490;78;25764;-71
2021/05/05 02:00:00;;;;;;;7.15;3.42;;;;;;;12.01;66.49;98971.33;1796410;79;25748;-71
2021/05/05 02:02:30;;;;;;;8.70;3.95;;;;;;;11.97;66.50;98978.78;1792799;79;25788;-71
2021/05/05 02:04:56;;;;;;;5.85;3.40;;;;;;;11.95;66.68;98977.41;1792818;79;26763;-71
2021/05/05 02:07:40;;;;;;;7.35;4.20;;;;;;;11.92;66.65;98973.39;1792857;78;25349;-71
2021/05/05 02:10:11;;;;;;;7.05;4.30;;;;;;;11.91;66.68;98970.97;1793200;78;25926;-71
2021/05/05 02:12:38;;;;;;;5.42;3.40;;;;;;;11.87;66.71;98964.04;1772652;79;25796;-71
2021/05/05 02:15:08;;;;;;;9.10;4.30;;;;;;;11.86;66.82;98962.41;1793617;78;27457;-71
2021/05/05 02:17:35;;;;;;;6.40;2.80;;;;;;;11.85;66.71;98964.72;1793540;78;25700;-71
2021/05/05 02:20:01;;;;;;;5.72;3.30;;;;;;;11.86;66.70;98962.92;1793312;79;25805;-71
2021/05/05 02:22:27;;;;;;;6.20;3.37;;;;;;;11.86;66.66;98962.92;1792662;78;26457;-70
2021/05/05 02:24:53;;;;;;;6.87;4.07;;;;;;;11.85;66.65;98959.48;1797113;79;31365;-70
2021/05/05 02:27:19;;;;;;;8.80;3.77;;;;;;;11.84;66.78;98959.67;1764443;79;25705;-70
2021/05/05 02:29:45;;;;;;;5.10;3.10;;;;;;;11.81;66.67;98955.66;1763621;79;34912;-70
2021/05/05 02:32:25;;;;;;;9.53;4.10;;;;;;;11.84;66.71;98963.59;1792759;79;25829;-71
2021/05/05 02:34:57;;;;;;;5.17;3.27;;;;;;;11.80;66.62;98960.60;1791236;79;25897;-71
2021/05/05 02:37:24;;;;;;;6.55;3.62;;;;;;;11.78;66.69;98963.45;1793334;79;25788;-72
2021/05/05 02:39:50;;;;;;;6.22;3.72;;;;;;;11.75;66.66;98959.91;1795365;79;25746;-71
2021/05/05 02:42:19;;;;;;;6.40;3.55;;;;;;;11.72;66.73;98961.63;1793084;78;26416;-71
2021/05/05 02:44:49;;;;;;;5.17;3.45;;;;;;;11.71;66.73;98957.93;1767004;79;25713;-71
2021/05/05 02:47:17;;;;;;;;;;;;;;;11.69;66.79;98957.33;1796018;79;26557;-71
2021/05/05 02:49:43;;;;;;;5.28;3.45;;;;;;;11.67;66.80;98956.72;1792050;79;25783;-71
2021/05/05 02:52:09;;;;;;;6.63;3.17;;;;;;;11.61;66.91;98961.48;1794300;79;27552;-72
2021/05/05 02:54:36;;;;;;;7.97;3.62;;;;;;;11.58;66.97;98949.61;1793848;79;25893;-72
2021/05/05 02:57:03;;;;;;;5.65;3.70;;;;;;;11.55;66.98;98943.48;1793491;79;25725;-72
2021/05/05 02:59:29;;;;;;;7.87;4.10;;;;;;;11.51;67.06;98950.95;1794160;79;25917;-72
2021/05/05 03:01:57;;;;;;;7.63;4.90;;;;;;;11.48;67.08;98950.02;1796258;79;30124;-71
2021/05/05 03:04:25;;;;;;;5.30;3.52;;;;;;;11.47;67.18;98950.25;1794757;79;25865;-71
2021/05/05 03:06:53;;;;;;;7.40;3.65;;;;;;;11.44;67.18;98942.81;1789234;79;25827;-71
2021/05/05 03:09:25;;;;;;;4.95;3.52;;;;;;;11.44;67.26;98948.05;1795741;79;25772;-71
2021/05/05 03:11:55;;;;;;;9.53;3.67;;;;;;;11.41;67.38;98947.16;1789786;79;26355;-71
2021/05/05 03:14:23;;;;;;;5.20;2.95;;;;;;;11.38;67.35;98945.75;1792576;79;25897;-71
2021/05/05 03:16:50;;;;;;;6.47;3.62;;;;;;;11.36;67.46;98943.83;1794046;79;25971;-72
2021/05/05 03:19:16;;;;;;;5.78;3.92;;;;;;;11.33;67.46;98949.48;1791641;79;25814;-72
2021/05/05 03:21:42;;;;;;;5.72;3.62;;;;;;;11.33;67.51;98950.78;1791913;78;32645;-71
2021/05/05 03:24:08;;;;;;;6.73;3.97;;;;;;;11.32;67.68;98947.38;1792622;79;26605;-71
2021/05/05 03:26:35;;;;;;;8.33;5.05;;;;;;;11.33;67.58;98944.25;1791190;79;26534;-72
2021/05/05 03:29:01;;;;;;;7.55;4.17;;;;;;;11.34;67.75;98945.33;1794430;79;25658;-71
2021/05/05 03:31:26;;;;;;;8.68;4.50;;;;;;;11.34;68.04;98955.00;1793985;78;34908;-72
2021/05/05 03:33:52;;;;;;;5.62;3.87;;;;;;;11.35;67.78;98956.63;1798108;79;32801;-71
2021/05/05 03:36:18;;;;;;;4.80;3.30;;;;;;;11.37;67.77;98959.02;1795483;79;26649;-71
2021/05/05 03:38:44;;;;;;;6.83;3.60;;;;;;;11.36;67.82;98964.77;1798566;79;29053;-72
2021/05/05 03:41:10;;;;;;;6.63;3.77;;;;;;;11.34;67.86;98967.56;1793608;79;27122;-72
2021/05/05 03:43:36;;;;;;;6.05;2.77;;;;;;;11.33;67.88;98965.97;1794763;79;36097;-72
2021/05/05 03:46:02;;;;;;;6.90;4.00;;;;;;;11.34;68.15;98971.48;1797490;79;33060;-72
2021/05/05 03:48:28;;;;;;;7.95;4.25;;;;;;;11.34;67.99;98972.80;1794544;78;25796;-72
2021/05/05 03:50:56;;;;;;;9.93;3.77;;;;;;;11.34;67.89;98975.92;1795758;79;30166;-72
2021/05/05 03:53:22;;;;;;;6.80;3.70;;;;;;;11.33;67.89;98971.20;1792860;79;25400;-72
2021/05/05 03:55:48;;;;;;;5.85;2.92;;;;;;;11.34;67.81;98975.92;1796153;78;33907;-71
2021/05/05 03:58:14;;;;;;;6.25;3.25;;;;;;;11.34;67.83;98978.03;1798145;79;25754;-72
2021/05/05 04:00:40;;;;;;;6.80;3.10;;;;;;;11.37;67.80;98974.72;1792203;79;25849;-71
2021/05/05 04:03:06;;;;;;;6.47;3.07;;;;;;;11.36;67.71;98979.15;1795781;78;28037;-70
2021/05/05 04:05:32;;;;;;;4.87;3.23;;;;;;;11.37;67.75;98972.89;1790532;79;27428;-71
2021/05/05 04:07:58;;;;;;;4.55;3.00;;;;;;;11.37;67.68;98975.52;1793713;79;33793;-71
2021/05/05 04:10:24;;;;;;;5.70;3.30;;;;;;;11.38;67.69;98973.22;1764371;79;32589;-71
2021/05/05 04:12:50;;;;;;;5.25;3.15;;;;;;;11.39;67.68;98977.94;1797372;78;26998;-71
2021/05/05 04:15:17;;;;;;;7.20;3.67;;;;;;;11.38;67.62;98977.65;1793496;79;29098;-71
2021/05/05 04:17:43;;;;;;;4.12;2.92;;;;;;;11.39;67.64;98978.73;1795079;79;25512;-71
2021/05/05 04:20:10;;;;;;;5.00;2.72;;;;;;;11.41;67.67;98989.02;1791855;79;35440;-72
2021/05/05 04:22:37;;;;;;;7.03;3.45;;;;;;;11.44;67.71;98991.22;1790343;78;25693;-72
2021/05/05 04:25:04;;;;;;;5.78;3.10;;;;;;;11.48;67.78;98989.27;1794760;79;25697;-71
2021/05/05 04:27:31;;;;;;;5.70;3.17;;;;;;;11.54;67.66;98985.06;1789775;79;26053;-71
2021/05/05 04:29:56;;;;;;;5.25;3.10;;;;;;;11.60;67.54;98989.98;1793085;79;25722;-71
2021/05/05 04:32:23;;;;;;;4.87;3.22;;;;;;;11.65;67.41;98983.59;1791220;78;34977;-71
2021/05/05 04:34:48;;;;;;;7.62;3.27;;;;;;;11.71;67.37;98987.52;1777400;79;26624;-71
2021/05/05 04:37:14;;;;;;;7.17;3.23;;;;;;;11.78;67.14;98984.87;1797111;78;26488;-71
2021/05/05 04:39:41;;;;;;;6.83;3.57;;;;;;;11.83;67.05;98973.27;1792990;78;31122;-72
2021/05/05 04:42:09;;;;;;;5.78;2.30;;;;;;;11.90;66.93;98978.53;1792528;78;25994;-71
2021/05/05 04:44:35;;;;;;;8.13;2.72;;;;;;;11.95;66.56;98976.89;1795597;79;25717;-71
2021/05/05 04:47:02;;;;;;;5.40;2.75;;;;;;;12.02;66.33;98975.55;1795928;78;25752;-71
2021/05/05 04:49:27;;;;;;;5.03;2.87;;;;;;;12.07;66.00;98980.16;1794349;79;25753;-72
2021/05/05 04:51:53;;;;;;;4.67;2.73;;;;;;;12.10;65.84;98979.23;1792037;79;26558;-70
2021/05/05 04:54:19;;;;;;;4.37;2.53;;;;;;;12.15;65.85;98979.41;1799129;79;26969;-70
2021/05/05 04:56:45;;;;;;;3.95;2.30;;;;;;;12.19;65.60;98975.86;1792525;79;34936;-70
2021/05/05 04:59:11;;;;;;;7.00;2.40;;;;;;;12.19;65.21;98983.23;1794076;79;32635;-71
2021/05/05 05:01:37;;;;;;;4.33;2.30;;;;;;;12.24;64.94;98983.90;1790149;78;25732;-71
2021/05/05 05:04:04;;;;;;;3.80;2.30;;;;;;;12.30;64.94;98975.19;1797875;79;29599;-70
2021/05/05 05:06:29;;;;;;;3.60;2.22;;;;;;;12.39;64.71;98973.15;1795771;79;25754;-71
2021/05/05 05:08:55;;;;;;;9.05;2.58;;;;;;;12.50;64.55;98975.61;1790274;79;35315;-71
2021/05/05 05:11:21;;;;;;;5.87;2.52;;;;;;;12.58;64.39;98973.52;1798310;78;32538;-71
2021/05/05 05:13:47;;;;;;;4.57;2.40;;;;;;;12.60;62.99;98972.81;1795889;79;25781;-71
2021/05/05 05:16:13;;;;;;;5.43;2.20;;;;;;;12.59;63.31;98974.33;1792608;79;31049;-71
2021/05/05 05:18:38;;;;;;;3.03;2.03;;;;;;;12.58;63.49;98976.14;1791803;79;27598;-71
2021/05/05 05:21:05;;;;;;;5.70;2.35;;;;;;;12.59;62.73;98975.63;1791156;79;34879;-71
2021/05/05 05:23:33;;;;;;;5.30;2.17;;;;;;;12.61;63.15;98974.41;1792139;78;25922;-71
2021/05/05 05:25:59;;;;;;;3.98;2.10;;;;;;;12.63;62.79;98981.56;1792072;79;26517;-71
2021/05/05 05:28:26;;;;;;;3.43;2.00;;;;;;;12.66;62.98;98982.95;1790411;79;25806;-71
2021/05/05 05:30:52;;;;;;;3.77;2.00;;;;;;;12.69;62.35;98972.05;1791532;79;25668;-70
2021/05/05 05:33:18;;;;;;;5.58;2.20;;;;;;;12.69;62.13;98969.42;1791037;79;35489;-71
2021/05/05 05:35:44;;;;;;;3.37;1.85;;;;;;;12.71;62.22;98971.81;1787124;79;33955;-70
2021/05/05 05:38:11;;;;;;;6.35;2.10;;;;;;;12.77;62.23;98982.78;1791192;78;25764;-71
2021/05/05 05:40:38;;;;;;;6.05;2.15;;;;;;;12.87;62.10;98979.95;1789280;78;25837;-71
2021/05/05 05:43:04;;;;;;;3.35;2.00;;;;;;;12.99;62.01;98981.39;1786891;78;26689;-71
2021/05/05 05:45:31;;;;;;;5.45;1.92;;;;;;;13.09;61.51;98983.50;1790404;78;26059;-71
2021/05/05 05:47:57;;;;;;;3.77;2.12;;;;;;;13.16;61.54;98975.08;1791176;79;25965;-71
2021/05/05 05:50:23;;;;;;;4.37;1.75;;;;;;;13.22;61.25;98976.83;1792883;79;25758;-71
2021/05/05 05:52:49;;;;;;;4.97;2.45;;;;;;;13.26;61.10;98978.56;1789389;78;25764;-71
2021/05/05 05:55:17;;;;;;;4.17;2.30;;;;;;;13.36;60.72;98984.61;1791016;79;28530;-70
2021/05/05 05:57:45;;;;;;;6.80;2.20;;;;;;;13.42;59.99;98990.30;1794472;79;25589;-72
2021/05/05 06:00:15;;;;;;;4.25;1.98;;;;;;;13.48;60.54;98996.02;1799594;79;25836;-71
2021/05/05 06:02:41;;;;;;;3.45;1.55;;;;;;;13.55;60.55;98996.22;1789916;79;25836;-72
2021/05/05 06:05:09;;;;;;;3.95;1.87;;;;;;;13.64;60.70;98988.88;1795236;79;25878;-71
2021/05/05 06:07:35;;;;;;;5.30;2.30;;;;;;;13.69;59.31;98978.49;1789832;79;26641;-71
2021/05/05 06:10:00;;;;;;;4.60;2.08;;;;;;;13.74;60.11;98978.64;1792497;79;35010;-71
2021/05/05 06:12:26;;;;;;;3.98;1.87;;;;;;;13.84;60.15;98966.31;1793773;79;32465;-72
2021/05/05 06:14:54;;;;;;;6.00;2.00;;;;;;;13.94;59.99;98965.30;1794349;79;25399;-71
2021/05/05 06:17:21;;;;;;;2.95;1.72;;;;;;;14.00;59.16;98967.55;1791806;78;25852;-71
2021/05/05 06:19:47;;;;;;;3.12;2.00;;;;;;;14.04;58.82;98957.38;1788688;78;25357;-70
2021/05/05 06:22:13;;;;;;;3.80;2.17;;;;;;;14.08;59.17;98960.67;1788208;78;35409;-71
2021/05/05 06:24:38;;;;;;;3.65;2.08;;;;;;;14.15;58.75;98961.88;1791405;78;32963;-70
2021/05/05 06:27:07;;;;;;;6.60;2.33;;;;;;;14.23;57.79;98961.56;1797150;79;25777;-72
2021/05/05 06:29:34;;;;;;;6.58;1.80;;;;;;;14.30;57.54;98965.44;1792416;79;26184;-71
2021/05/05 06:32:01;;;;;;;5.05;2.05;;;;;;;14.35;57.57;98959.80;1793083;78;25317;-72
2021/05/05 06:34:27;;;;;;;3.08;1.60;;;;;;;14.39;57.14;98951.73;1770838;79;26318;-72
2021/05/05 06:36:53;;;;;;;3.25;1.60;;;;;;;14.51;57.26;98956.22;1789739;79;33187;-71
2021/05/05 06:39:18;;;;;;;6.62;1.92;;;;;;;14.62;56.70;98956.78;1789020;79;25800;-72
2021/05/05 06:41:44;;;;;;;5.67;1.82;;;;;;;14.69;56.47;98956.70;1789839;79;32287;-72
2021/05/05 06:44:10;;;;;;;4.80;1.57;;;;;;;14.71;56.81;98955.45;1791843;78;29484;-71
2021/05/05 06:46:42;;;;;;;3.35;1.82;;;;;;;14.72;57.03;98952.30;1793256;79;25808;-70
2021/05/05 06:49:04;;;;;;;4.53;1.40;;;;;;;14.69;54.05;98966.70;1788698;79;25758;-71
2021/05/05 06:51:30;;;;;;;3.77;1.42;;;;;;;14.59;54.12;98964.61;1787022;78;26222;-72
2021/05/05 06:53:56;;;;;;;3.80;1.25;;;;;;;14.52;52.59;98961.30;1793941;78;32917;-71
2021/05/05 06:56:21;;;;;;;2.52;1.15;;;;;;;14.46;54.24;98952.97;1791429;79;30001;-70
2021/05/05 06:58:47;;;;;;;2.67;1.22;;;;;;;14.44;52.73;98957.13;1779973;79;34986;-71
2021/05/05 07:01:13;;;;;;;7.45;2.00;;;;;;;14.39;51.95;98954.88;1794295;79;32541;-72
2021/05/05 07:03:39;;;;;;;2.72;1.50;;;;;;;14.35;53.64;98954.54;1795160;78;25808;-72
2021/05/05 07:06:05;;;;;;;6.67;1.80;;;;;;;14.37;52.72;98955.61;1792167;78;31749;-71
2021/05/05 07:08:30;;;;;;;3.60;1.37;;;;;;;14.33;52.72;98961.84;1775950;79;29964;-72
2021/05/05 07:10:56;;;;;;;6.85;2.20;;;;;;;14.31;53.08;98961.77;1791975;78;35419;-72
2021/05/05 07:13:22;;;;;;;4.92;1.60;;;;;;;14.30;52.37;98967.55;1793292;78;32643;-72
2021/05/05 07:15:48;;;;;;;5.25;1.80;;;;;;;14.24;50.11;98965.00;1794377;79;26054;-72
2021/05/05 07:18:14;;;;;;;5.50;1.40;;;;;;;14.13;51.66;98966.06;1791018;78;32566;-71
2021/05/05 07:20:40;;;;;;;2.98;1.50;;;;;;;14.12;50.11;98976.27;1789857;79;26110;-72
2021/05/05 07:23:05;;;;;;;8.80;1.85;;;;;;;14.03;50.73;98967.61;1791259;78;35389;-74
2021/05/05 07:25:31;;;;;;;4.00;1.42;;;;;;;13.97;51.46;98953.02;1791095;78;32625;-71
2021/05/05 07:28:00;;;;;;;3.52;1.67;;;;;;;13.98;51.63;98951.98;1788735;79;25974;-73
2021/05/05 07:30:26;;;;;;;8.40;1.52;;;;;;;14.02;51.93;98951.55;1792128;79;25837;-73
2021/05/05 07:32:53;;;;;;;6.65;2.10;;;;;;;14.02;51.87;98952.86;1791627;79;25907;-72
2021/05/05 07:35:20;;;;;;;5.28;2.02;;;;;;;14.02;52.01;98949.71;1795200;79;25661;-72
2021/05/05 07:47:59;;;;;;;6.10;1.80;;;;;;;14.04;50.61;98962.64;1791406;79;25986;-75
2021/05/05 07:50:17;;;;;;;10.82;2.22;;;;;;;14.04;51.35;98956.87;1790116;79;25730;-73
2021/05/05 07:52:44;;;;;;;2.80;1.70;;;;;;;14.07;51.86;98960.36;1792324;78;25737;-72
2021/05/05 07:55:11;;;;;;;8.07;2.00;;;;;;;14.10;51.62;98959.12;1794878;78;31818;-72
2021/05/05 07:57:40;;;;;;;4.20;1.77;;;;;;;14.14;52.07;98947.16;1793231;78;25781;-72
2021/05/05 08:00:07;;;;;;;4.75;1.92;;;;;;;14.21;51.10;98948.67;1792292;78;26073;-72
2021/05/05 08:02:35;;;;;;;4.05;1.57;;;;;;;14.24;51.52;98940.03;1794709;78;25814;-71
2021/05/05 08:05:02;;;;;;;4.20;1.85;;;;;;;14.27;51.36;98937.77;1797538;78;26336;-72
2021/05/05 08:07:28;;;;;;;8.05;1.80;;;;;;;14.33;51.30;98939.50;1794158;78;26565;-74
2021/05/05 08:09:54;;;;;;;4.83;1.98;;;;;;;14.44;51.26;98935.30;1794911;79;30158;-74
2021/05/05 08:12:20;;;;;;;5.35;1.80;;;;;;;14.59;50.44;98939.63;1791918;78;35290;-74
2021/05/05 08:14:46;;;;;;;4.03;1.77;;;;;;;14.73;50.24;98944.69;1793106;79;25745;-73
2021/05/05 08:17:13;;;;;;;9.38;1.87;;;;;;;14.70;49.44;98946.45;1791973;79;25821;-73
2021/05/05 08:19:39;;;;;;;6.80;2.10;;;;;;;14.68;49.64;98948.50;1794237;79;25733;-73
2021/05/05 08:22:05;;;;;;;6.95;1.70;;;;;;;14.67;50.31;98941.66;1787557;78;26807;-72
2021/05/05 08:24:31;;;;;;;4.40;1.77;;;;;;;14.65;50.25;98944.01;1789963;78;25744;-72
2021/05/05 08:26:59;;;;;;;5.40;2.05;;;;;;;14.60;49.51;98945.71;1787475;78;26298;-73
2021/05/05 08:29:28;;;;;;;4.83;1.82;;;;;;;14.53;50.17;98942.37;1792537;79;25816;-74
2021/05/05 08:31:56;;;;;;;5.00;2.25;;;;;;;14.50;49.77;98945.42;1796502;79;25785;-73
2021/05/05 08:34:25;;;;;;;4.58;1.92;;;;;;;14.49;49.98;98949.89;1791706;79;26229;-73
2021/05/05 08:36:55;;;;;;;5.20;1.60;;;;;;;14.54;50.90;98946.10;1792460;79;25784;-73
2021/05/05 08:39:21;;;;;;;7.60;2.05;;;;;;;14.60;51.42;98949.66;1795890;78;25316;-73
2021/05/05 08:41:48;;;;;;;6.08;2.10;;;;;;;14.65;51.42;98948.47;1793539;79;25913;-73
2021/05/05 08:44:15;;;;;;;4.70;1.77;;;;;;;14.64;51.80;98937.64;1797900;79;32813;-72
2021/05/05 08:46:44;;;;;;;5.10;1.70;;;;;;;14.44;51.49;98911.64;1792764;79;25363;-72
2021/05/05 08:49:13;;;;;;;8.13;2.00;;;;;;;14.51;51.79;98932.03;1797097;79;25783;-74
2021/05/05 08:51:39;;;;;;;4.65;1.62;;;;;;;14.53;52.42;98936.59;1789446;78;25339;-73
2021/05/05 08:54:07;;;;;;;4.80;2.00;;;;;;;14.62;52.60;98942.32;1792086;78;25782;-74
2021/05/05 08:56:35;;;;;;;5.67;1.65;;;;;;;14.61;52.66;98940.21;1790953;78;26585;-72
2021/05/05 08:59:05;;;;;;;4.90;2.30;;;;;;;14.61;52.02;98941.53;1788626;79;25749;-72
2021/05/05 09:01:32;;;;;;;5.67;2.55;;;;;;;14.58;52.51;98935.41;1794277;79;28136;-73
2021/05/05 09:03:58;;;;;;;6.92;2.08;;;;;;;14.64;52.90;98933.18;1793203;79;25303;-73
2021/05/05 09:06:48;;;;;;;4.70;2.00;;;;;;;14.68;52.66;98931.41;1792863;78;25797;-73
2021/05/05 09:09:32;;;;;;;7.85;2.22;;;;;;;14.68;52.68;98932.72;1795390;78;25817;-72
2021/05/05 09:12:01;;;;;;;7.17;2.27;;;;;;;14.61;52.97;98938.10;1790782;79;26560;-73
2021/05/05 09:14:28;;;;;;;5.10;2.22;;;;;;;14.58;52.98;98943.30;1782453;79;25801;-73
2021/05/05 09:16:54;;;;;;;6.70;2.12;;;;;;;14.58;53.20;98941.19;1790678;78;25812;-73
2021/05/05 09:19:20;;;;;;;8.95;3.33;;;;;;;14.56;53.12;98947.17;1795023;78;25908;-73
2021/05/05 09:21:54;;;;;;;4.67;2.50;;;;;;;14.54;53.43;98939.53;1790854;78;33179;-74
2021/05/05 09:24:28;;;;;;;7.58;2.75;;;;;;;14.57;53.74;98948.80;1793519;79;25940;-74
2021/05/05 09:27:04;;;;;;;4.78;2.30;;;;;;;14.65;53.46;98934.80;1792572;79;25792;-75
2021/05/05 09:29:50;;;;;;;7.30;2.80;;;;;;;14.78;53.73;98933.77;1796044;79;25887;-73
2021/05/05 09:32:20;;;;;;;3.70;2.25;;;;;;;14.94;54.27;98931.50;1793307;79;25719;-73
2021/05/05 09:35:04;;;;;;;3.33;1.87;;;;;;;15.22;53.52;98925.04;1797061;79;25805;-72
2021/05/05 09:37:30;;;;;;;5.47;2.05;;;;;;;15.27;53.63;98910.64;1790482;79;25759;-75
2021/05/05 09:40:01;;;;;;;3.70;1.72;;;;;;;15.32;53.36;98916.02;1798387;79;25460;-75
2021/05/05 09:42:31;;;;;;;4.37;1.80;;;;;;;15.23;52.00;98917.41;1793807;79;25954;-73
2021/05/05 09:45:07;;;;;;;3.87;1.70;;;;;;;15.06;52.40;98919.95;1795535;79;26393;-72
2021/05/05 09:47:57;;;;;;;4.05;1.82;;;;;;;14.99;53.36;98921.89;1793203;79;25302;-74
2021/05/05 09:50:47;;;;;;;5.78;2.02;;;;;;;14.96;53.27;98915.77;1791683;79;25804;-73
2021/05/05 09:53:32;;;;;;;2.50;1.57;;;;;;;14.90;53.88;98918.02;1793681;79;26427;-71
2021/05/05 09:56:03;;;;;;;4.30;1.72;;;;;;;14.79;53.84;98924.07;1791946;79;25329;-72
2021/05/05 09:58:42;;;;;;;3.00;1.67;;;;;;;14.70;53.92;98925.41;1796182;79;25917;-71
2021/05/05 10:01:12;;;;;;;2.37;1.40;;;;;;;14.56;54.28;98923.51;1796554;79;25831;-73
2021/05/05 10:03:49;;;;;;;3.25;1.47;;;;;;;14.46;55.04;98931.11;1792168;79;25792;-73
2021/05/05 10:06:31;;;;;;;4.03;1.40;;;;;;;14.40;55.35;98928.38;1792364;79;25835;-72
2021/05/05 10:09:12;;;;;;;3.02;1.47;;;;;;;14.31;55.73;98930.23;1788474;79;25736;-73
2021/05/05 10:11:43;;;;;;;2.87;1.42;;;;;;;14.27;56.35;98928.58;1789996;79;25674;-73
2021/05/05 10:14:16;;;;;;;3.70;1.45;;;;;;;14.27;56.98;98927.26;1794081;79;25768;-73
2021/05/05 10:16:47;;;;;;;1.95;1.47;;;;;;;14.24;57.29;98924.26;1793715;79;25959;-73
2021/05/05 10:19:21;;;;;;;2.20;1.40;;;;;;;14.20;57.37;98918.66;1789524;79;25778;-73
2021/05/05 10:21:58;;;;;;;5.97;1.85;;;;;;;14.20;57.66;98914.72;1793173;79;25588;-73
2021/05/05 10:24:25;;;;;;;3.10;1.52;;;;;;;14.19;57.80;98912.61;1788404;78;25956;-73
2021/05/05 10:26:53;;;;;;;3.12;1.57;;;;;;;14.19;58.27;98924.44;1791996;78;25655;-74
2021/05/05 10:29:19;;;;;;;5.17;1.87;;;;;;;14.18;58.39;98923.33;1794185;79;25311;-74
2021/05/05 10:32:00;;;;;;;3.45;1.85;;;;;;;14.18;58.89;98918.08;1798297;78;25704;-73
2021/05/05 10:34:27;;;;;;;4.72;2.30;;;;;;;14.16;59.21;98924.88;1794128;79;25889;-73
2021/05/05 10:37:00;;;;;;;4.42;2.00;;;;;;;14.14;59.93;98927.45;1795124;79;25821;-73
2021/05/05 10:39:30;;;;;;;;;;;;;;;14.07;60.43;98931.98;1797811;79;25764;-74
2021/05/05 10:42:04;;;;;;;4.00;2.10;;;;;;;13.99;60.87;98931.28;1792196;79;26731;-72
2021/05/05 10:44:47;;;;;;;3.65;2.30;;;;;;;14.00;61.40;98933.39;1794066;78;25729;-74
2021/05/05 10:47:33;;;;;;;3.75;2.27;;;;;;;14.00;61.71;98928.14;1788653;79;25309;-72
2021/05/05 10:50:12;;;;;;;3.95;2.50;;;;;;;14.02;62.20;98933.16;1797987;79;25835;-73
2021/05/05 10:52:49;;;;;;;4.50;2.98;;;;;;;13.91;63.06;98931.59;1797124;79;26142;-72
2021/05/05 10:55:19;;;;;;;6.65;2.62;;;;;;;13.83;63.06;98945.03;1793505;79;25764;-74
2021/05/05 10:58:12;;;;;;;10.00;3.22;;;;;;;13.79;63.67;98946.48;1798176;79;25752;-74
2021/05/05 11:00:45;;;;;;;4.40;2.33;;;;;;;13.71;63.86;98947.58;1794855;79;25976;-74
2021/05/05 11:03:12;;;;;;;8.58;2.45;;;;;;;13.62;65.91;98942.86;1791482;78;25706;-72
2021/05/05 11:05:39;;;;;;;4.80;2.52;;;;;;;13.48;65.48;98952.19;1778368;78;25713;-71
2021/05/05 11:08:08;;;;;;;6.62;2.40;;;;;;;13.38;65.74;98951.88;1790840;78;25820;-73
2021/05/05 11:10:48;;;;;;;3.80;2.10;;;;;;;13.33;67.58;98952.52;1793330;78;26361;-73
2021/05/05 11:13:23;;;;;;;4.35;2.37;;;;;;;13.25;68.34;98963.79;1794443;78;25711;-73
2021/05/05 11:15:57;;;;;;;5.70;2.67;;;;;;;13.16;68.44;98967.20;1795727;78;25729;-73
2021/05/05 11:18:38;;;;;;;4.95;2.20;;;;;;;13.14;68.99;98962.68;1795221;79;25323;-72
2021/05/05 11:21:28;;;;;;;6.50;2.80;;;;;;;13.14;69.74;98965.81;1787262;79;26491;-72
2021/05/05 11:23:54;;;;;;;4.58;2.70;;;;;;;13.03;69.96;98961.56;1792432;79;25801;-72
2021/05/05 11:26:32;;;;;;;4.40;2.37;;;;;;;12.95;71.13;98961.04;1792471;79;32493;-73
2021/05/05 11:29:06;;;;;;;7.10;2.35;;;;;;;12.81;71.71;98970.32;1797448;79;25793;-72
2021/05/05 11:31:50;;;;;;;5.03;2.33;;;;;;;12.69;71.19;98973.35;1793467;79;26030;-73
2021/05/05 11:34:29;;;;;;;4.25;2.58;;;;;;;12.62;72.91;98971.27;1791977;79;36174;-72
2021/05/05 11:37:03;;;;;;;5.17;2.70;;;;;;;12.55;72.46;98981.81;1798715;79;25804;-73
2021/05/05 11:39:33;;;;;;;4.08;2.60;;;;;;;12.48;73.17;98982.87;1796453;78;25763;-74
2021/05/05 11:42:16;;;;;;;7.28;3.15;;;;;;;12.37;74.29;98975.97;1792490;79;25799;-74
2021/05/05 11:44:48;;;;;;;5.97;3.00;;;;;;;12.30;73.08;98975.19;1793187;78;25813;-75
2021/05/05 11:47:28;;;;;;;6.35;3.02;;;;;;;12.27;74.82;98983.48;1792165;79;25771;-73
2021/05/05 11:50:09;;;;;;;6.97;2.92;;;;;;;12.22;75.57;98987.22;1795899;79;25768;-75
2021/05/05 11:52:55;;;;;;;6.55;2.80;;;;;;;12.09;75.17;98995.17;1715973;81;26104;-73